Time;durP1;ratioP1;P1;durP2;ratioP2;P2;SDS_P1;SDS_P2;PMS_P1;PMS_P2;Temp;Humidity;BMP_temperature;BMP_pressure;BME280_temperature;BME280_humidity;BME280_pressure;Samples;Min_cycle;Max_cycle;Signal;HPM_P1;HPM_P2
2021/06/03 00:00:57;;;;;;;7.45;4.35;;;;;;;16.87;59.54;99814.31;5071627;28;20035;-76
2021/06/03 00:03:23;;;;;;;5.25;4.38;;;;;;;17.21;59.62;99863.03;5071404;28;20496;-75
2021/06/03 00:05:52;;;;;;;5.60;4.35;;;;;;;16.78;59.96;99810.25;5071445;28;20024;-76
2021/06/03 00:08:19;;;;;;;6.80;4.28;;;;;;;17.23;59.62;99868.97;5071237;28;20029;-76
2021/06/03 00:11:05;;;;;;;5.20;4.53;;;;;;;16.91;59.60;99823.53;5071440;28;20062;-76
2021/06/03 00:13:32;;;;;;;7.68;4.65;;;;;;;17.21;59.74;99860.34;5071545;28;20020;-76
2021/06/03 00:16:01;;;;;;;6.63;4.57;;;;;;;17.11;59.57;99842.97;5071443;28;20035;-76
2021/06/03 00:18:27;;;;;;;10.73;5.18;;;;;;;17.17;59.64;99859.16;5071658;28;20107;-76
2021/06/03 00:20:53;;;;;;;6.65;5.22;;;;;;;17.03;59.49;99845.03;5071599;28;20048;-76
2021/06/03 00:23:19;;;;;;;6.30;5.60;;;;;;;17.10;59.73;99856.50;5070254;28;20120;-77
2021/06/03 00:25:44;;;;;;;5.95;5.25;;;;;;;17.07;59.47;99859.56;5071372;28;20107;-76
2021/06/03 00:28:10;;;;;;;7.93;4.93;;;;;;;16.74;59.49;99811.72;5071086;28;20021;-75
2021/06/03 00:30:36;;;;;;;6.13;5.38;;;;;;;17.07;59.80;99856.91;5069965;28;20020;-76
2021/06/03 00:33:02;;;;;;;7.70;5.20;;;;;;;16.99;59.24;99843.81;5071303;28;20021;-76
2021/06/03 00:35:27;;;;;;;7.43;4.68;;;;;;;17.02;59.71;99851.38;5071395;28;20028;-76
2021/06/03 00:37:53;;;;;;;5.65;4.40;;;;;;;16.54;59.51;99777.09;5071283;28;20032;-76
2021/06/03 00:40:20;;;;;;;4.43;4.03;;;;;;;16.93;59.36;99842.81;5070824;28;20058;-76
2021/06/03 00:42:46;;;;;;;7.72;4.78;;;;;;;16.93;59.44;99847.31;5069977;28;20401;-76
2021/06/03 00:45:14;;;;;;;8.32;4.97;;;;;;;16.73;59.42;99823.41;5071430;28;20032;-76
2021/06/03 00:47:40;;;;;;;5.78;4.55;;;;;;;16.72;59.43;99835.91;5071490;28;20032;-75
2021/06/03 00:50:18;;;;;;;6.63;5.10;;;;;;;16.73;59.34;99845.56;5071280;28;20020;-75
2021/06/03 00:52:43;;;;;;;8.50;4.93;;;;;;;16.68;59.78;99850.69;5069957;28;20039;-75
2021/06/03 00:55:09;;;;;;;6.32;4.68;;;;;;;16.32;59.27;99791.69;5069802;28;20029;-75
2021/06/03 00:57:35;;;;;;;6.18;4.72;;;;;;;16.61;59.33;99844.53;5070953;28;20099;-75
2021/06/03 01:00:01;;;;;;;6.88;4.55;;;;;;;16.34;59.17;99822.44;5070964;28;20108;-76
2021/06/03 01:02:27;;;;;;;7.18;4.90;;;;;;;16.29;59.07;99800.09;5070745;28;20119;-74
2021/06/03 01:04:52;;;;;;;5.55;4.70;;;;;;;16.34;59.24;99814.44;5069276;28;20104;-76
2021/06/03 01:07:17;;;;;;;7.40;4.13;;;;;;;16.37;59.15;99824.72;5070832;28;20094;-76
2021/06/03 01:10:24;;;;;;;6.38;4.57;;;;;;;16.41;59.13;99854.44;5073769;28;20505;-75
2021/06/03 01:12:58;;;;;;;8.02;4.70;;;;;;;16.34;59.23;99851.75;5074498;28;20041;-76
2021/06/03 01:15:26;;;;;;;6.28;4.82;;;;;;;15.91;59.44;99821.28;5075204;28;20029;-76
2021/06/03 01:17:52;;;;;;;5.55;5.03;;;;;;;15.99;59.69;99859.16;5074509;28;20021;-75
2021/06/03 01:20:19;;;;;;;6.10;4.88;;;;;;;15.41;59.69;99778.22;5074217;28;20028;-76
2021/06/03 01:23:02;;;;;;;7.20;5.00;;;;;;;15.38;59.95;99795.41;5072909;28;20028;-76
2021/06/03 01:25:28;;;;;;;5.78;3.85;;;;;;;15.81;59.85;99857.13;5074148;28;20489;-75
2021/06/03 01:27:54;;;;;;;5.97;4.72;;;;;;;15.46;59.59;99797.84;5072893;28;20020;-76
2021/06/03 01:30:21;;;;;;;5.50;4.35;;;;;;;15.44;59.61;99767.97;5072949;28;20039;-76
2021/06/03 01:32:51;;;;;;;6.22;4.30;;;;;;;16.05;59.20;99852.19;5073979;28;20489;-76
2021/06/03 01:35:23;;;;;;;7.15;4.30;;;;;;;15.90;59.42;99820.44;5073965;28;20099;-75
2021/06/03 01:37:50;;;;;;;4.63;4.13;;;;;;;15.99;59.01;99843.19;5074193;28;20021;-76
2021/06/03 01:40:17;;;;;;;7.38;4.80;;;;;;;15.79;59.20;99805.91;5073900;28;20081;-76
2021/06/03 01:42:44;;;;;;;8.15;5.20;;;;;;;16.07;59.06;99858.97;5073826;28;20032;-75
2021/06/03 01:45:11;;;;;;;7.03;5.25;;;;;;;15.98;59.18;99844.22;5073999;28;20021;-76
2021/06/03 01:47:37;;;;;;;6.97;5.35;;;;;;;16.01;59.14;99859.78;5072411;28;20069;-76
2021/06/03 01:50:05;;;;;;;7.45;5.47;;;;;;;15.84;59.38;99824.75;5073644;28;20024;-76
2021/06/03 01:52:32;;;;;;;6.72;4.82;;;;;;;15.88;59.07;99835.81;5072399;28;20016;-76
2021/06/03 01:54:57;;;;;;;7.20;5.13;;;;;;;15.60;58.72;99768.63;5073631;28;20408;-76
2021/06/03 01:57:23;;;;;;;6.22;4.75;;;;;;;15.64;59.20;99786.66;5073777;28;20045;-76
2021/06/03 01:59:49;;;;;;;7.20;4.90;;;;;;;16.07;58.89;99852.81;5072543;28;21447;-76
2021/06/03 02:02:14;;;;;;;5.68;4.55;;;;;;;15.58;58.89;99790.94;5073925;28;20024;-76
2021/06/03 02:04:40;;;;;;;6.60;4.65;;;;;;;15.66;58.77;99789.13;5073521;28;20024;-76
2021/06/03 02:07:05;;;;;;;5.10;4.65;;;;;;;15.65;58.59;99793.63;5073594;28;20050;-76
2021/06/03 02:09:31;;;;;;;7.55;4.45;;;;;;;15.81;58.79;99819.84;5073442;28;20048;-75
2021/06/03 02:11:57;;;;;;;5.43;4.70;;;;;;;15.56;58.66;99790.28;5073634;28;20028;-76
2021/06/03 02:14:26;;;;;;;11.80;4.18;;;;;;;15.77;58.86;99828.44;5073731;28;20493;-75
2021/06/03 02:16:58;;;;;;;6.70;4.15;;;;;;;15.67;58.81;99807.56;5073403;28;20028;-76
2021/06/03 02:20:10;;;;;;;6.88;4.65;;;;;;;15.89;58.47;99859.56;5073105;28;20027;-75
2021/06/03 02:22:37;;;;;;;5.45;4.05;;;;;;;15.61;58.68;99821.69;5051330;28;20037;-76
2021/06/03 02:25:05;;;;;;;5.65;3.75;;;;;;;15.83;58.60;99841.75;5051644;28;20035;-76
2021/06/03 02:27:31;;;;;;;5.68;4.30;;;;;;;15.19;58.54;99735.84;5063044;28;20094;-76
2021/06/03 02:29:57;;;;;;;6.88;4.43;;;;;;;15.91;58.46;99851.38;5072017;28;20032;-75
2021/06/03 02:32:23;;;;;;;6.60;4.60;;;;;;;15.94;58.34;99853.63;5071984;28;20451;-76
2021/06/03 02:34:49;;;;;;;6.88;4.88;;;;;;;15.86;58.24;99843.19;5072964;28;20741;-75
2021/06/03 02:37:16;;;;;;;6.30;5.32;;;;;;;15.40;58.42;99768.59;5072941;28;20021;-75
2021/06/03 02:39:45;;;;;;;6.18;4.70;;;;;;;15.59;58.41;99810.38;5072738;28;20032;-75
2021/06/03 02:42:11;;;;;;;8.07;5.20;;;;;;;15.53;58.33;99801.34;5072997;28;20043;-75
2021/06/03 02:44:37;;;;;;;5.68;4.68;;;;;;;15.89;58.31;99842.78;5072912;28;20114;-74
2021/06/03 02:47:04;;;;;;;8.25;4.75;;;;;;;15.81;58.27;99851.78;5072845;28;20071;-76
2021/06/03 02:49:29;;;;;;;7.28;4.35;;;;;;;15.53;58.59;99795.19;5073031;28;20097;-75
2021/06/03 02:51:55;;;;;;;8.00;5.13;;;;;;;15.30;58.64;99766.34;5071691;28;20480;-75
2021/06/03 02:54:20;;;;;;;8.68;5.00;;;;;;;15.66;58.70;99829.88;5073071;28;20070;-77
2021/06/03 02:56:47;;;;;;;5.78;4.82;;;;;;;15.56;58.72;99819.56;5073355;28;20463;-76
2021/06/03 02:59:12;;;;;;;8.35;5.07;;;;;;;15.41;58.86;99788.84;5072302;28;20028;-76
2021/06/03 03:01:37;;;;;;;8.77;5.65;;;;;;;15.88;58.61;99859.78;5072232;28;20025;-77
2021/06/03 03:04:03;;;;;;;8.75;5.13;;;;;;;15.65;59.02;99822.09;5072554;28;20090;-76
2021/06/03 03:06:29;;;;;;;6.38;4.80;;;;;;;15.42;58.99;99795.81;5072372;28;20024;-76
2021/06/03 03:08:54;;;;;;;6.28;4.93;;;;;;;15.56;59.16;99824.06;5072436;28;20020;-75
2021/06/03 03:11:19;;;;;;;8.38;5.28;;;;;;;15.84;58.99;99863.88;5071138;28;20058;-76
2021/06/03 03:13:45;;;;;;;7.53;5.25;;;;;;;15.53;59.05;99813.84;5072429;28;20017;-75
2021/06/03 03:16:10;;;;;;;8.10;5.22;;;;;;;15.85;59.18;99868.19;5072228;28;20028;-75
2021/06/03 03:18:36;;;;;;;7.43;5.28;;;;;;;15.44;59.13;99796.44;5071984;28;20036;-77
2021/06/03 03:21:03;;;;;;;8.90;5.55;;;;;;;15.65;58.93;99833.56;5071967;28;20092;-76
2021/06/03 03:23:28;;;;;;;8.57;5.35;;;;;;;15.63;58.82;99827.63;5071873;28;20028;-76
2021/06/03 03:25:54;;;;;;;7.45;5.60;;;;;;;15.49;58.87;99809.94;5071900;28;20021;-76
2021/06/03 03:28:20;;;;;;;8.50;5.60;;;;;;;15.48;59.13;99797.66;5072093;28;20047;-76
2021/06/03 03:30:47;;;;;;;8.60;6.15;;;;;;;15.85;58.96;99852.19;5071802;28;20024;-76
2021/06/03 03:33:15;;;;;;;5.43;4.93;;;;;;;15.55;58.67;99812.59;5071857;28;20100;-76
2021/06/03 03:35:45;;;;;;;7.75;5.05;;;;;;;15.94;58.87;99874.13;5071809;28;20016;-76
2021/06/03 03:38:10;;;;;;;7.53;5.18;;;;;;;15.98;58.58;99880.69;5072021;28;20055;-76
2021/06/03 03:40:36;;;;;;;12.32;5.80;;;;;;;15.87;58.77;99876.78;5070385;28;20028;-76
2021/06/03 03:43:01;;;;;;;9.27;5.50;;;;;;;15.87;58.67;99877.59;5071795;28;20077;-76
2021/06/03 03:45:27;;;;;;;9.70;5.82;;;;;;;15.59;58.62;99839.66;5070239;28;20028;-76
2021/06/03 03:47:53;;;;;;;6.85;5.75;;;;;;;15.63;58.79;99838.28;5072180;28;20016;-76
2021/06/03 03:50:20;;;;;;;9.98;6.00;;;;;;;15.78;58.44;99865.50;5070555;28;20103;-75
2021/06/03 03:52:46;;;;;;;8.63;5.65;;;;;;;15.95;58.45;99895.22;5071700;28;20024;-75
2021/06/03 03:55:13;;;;;;;7.85;5.57;;;;;;;15.96;58.40;99899.53;5071929;28;20013;-76
2021/06/03 03:57:40;;;;;;;7.20;5.20;;;;;;;15.66;58.54;99859.16;5071445;28;20077;-76
2021/06/03 04:00:13;;;;;;;8.43;6.30;;;;;;;15.93;58.50;99897.28;5071299;28;20420;-76
2021/06/03 04:02:39;;;;;;;7.10;5.70;;;;;;;15.85;58.71;99897.47;5071556;28;20013;-76
2021/06/03 04:05:05;;;;;;;10.75;5.95;;;;;;;15.96;59.00;99906.69;5071538;28;20073;-76
2021/06/03 04:07:30;;;;;;;8.77;6.15;;;;;;;15.98;58.94;99910.78;5071560;28;20031;-76
2021/06/03 04:09:56;;;;;;;12.40;6.88;;;;;;;16.03;58.82;99911.00;5071444;28;20024;-76
2021/06/03 04:12:22;;;;;;;11.32;6.20;;;;;;;16.07;59.18;99914.06;5071364;28;20054;-77
2021/06/03 04:14:47;;;;;;;7.50;5.80;;;;;;;15.94;58.91;99884.78;5070382;28;20481;-78
2021/06/03 04:17:13;;;;;;;8.35;5.90;;;;;;;15.93;58.74;99885.78;5071457;28;20428;-76
2021/06/03 04:19:38;;;;;;;8.18;6.20;;;;;;;15.66;58.73;99837.03;5071598;28;20025;-75
2021/06/03 04:22:04;;;;;;;9.73;6.43;;;;;;;16.19;58.63;99923.09;5070387;28;20036;-76
2021/06/03 04:24:29;;;;;;;9.32;6.70;;;;;;;16.25;58.39;99924.94;5071520;28;20089;-76
2021/06/03 04:26:54;;;;;;;6.90;5.65;;;;;;;15.65;57.85;99809.59;5071393;28;20017;-76
2021/06/03 04:29:20;;;;;;;9.05;5.97;;;;;;;16.03;57.46;99891.53;5071333;28;20083;-76
2021/06/03 04:31:45;;;;;;;6.30;5.45;;;;;;;16.39;56.97;99917.78;5071355;28;20442;-77
2021/06/03 04:34:11;;;;;;;10.13;6.03;;;;;;;16.23;56.79;99903.00;5071480;28;20585;-76
2021/06/03 04:36:37;;;;;;;9.35;6.03;;;;;;;16.35;56.57;99922.72;5075447;28;20024;-76
2021/06/03 04:39:03;;;;;;;8.13;5.15;;;;;;;15.80;56.35;99849.34;5073240;28;20016;-76
2021/06/03 04:41:29;;;;;;;7.70;5.13;;;;;;;16.30;56.03;99924.31;5071023;28;20154;-76
2021/06/03 04:43:54;;;;;;;7.75;5.00;;;;;;;16.10;55.97;99882.53;5071659;28;20400;-76
2021/06/03 04:46:19;;;;;;;7.68;5.10;;;;;;;16.19;55.51;99883.94;5073876;28;20088;-76
2021/06/03 04:48:45;;;;;;;7.32;4.57;;;;;;;16.16;55.15;99867.56;5075388;28;20021;-75
2021/06/03 04:51:10;;;;;;;7.53;4.90;;;;;;;16.60;54.60;99941.53;5075170;28;20047;-76
2021/06/03 04:53:37;;;;;;;6.75;4.43;;;;;;;16.62;53.92;99934.16;5074808;28;20511;-76
2021/06/03 04:56:02;;;;;;;7.05;5.00;;;;;;;16.60;53.43;99922.06;5074622;28;20029;-76
2021/06/03 04:58:29;;;;;;;8.40;4.35;;;;;;;16.66;53.59;99934.59;5074869;28;20013;-75
2021/06/03 05:00:55;;;;;;;7.38;4.80;;;;;;;16.75;53.55;99949.34;5074973;28;20056;-76
2021/06/03 05:03:20;;;;;;;5.80;4.40;;;;;;;16.83;53.76;99939.28;5073491;28;20052;-77
2021/06/03 05:05:46;;;;;;;6.38;4.85;;;;;;;16.53;53.42;99885.56;5074792;28;20142;-76
2021/06/03 05:08:12;;;;;;;5.82;4.57;;;;;;;16.94;53.40;99953.00;5074595;28;20382;-76
2021/06/03 05:10:37;;;;;;;5.45;4.30;;;;;;;16.94;52.87;99943.13;5074470;28;20028;-75
2021/06/03 05:13:03;;;;;;;7.40;4.18;;;;;;;16.66;52.70;99908.75;5074330;28;20017;-75
2021/06/03 05:15:29;;;;;;;5.10;4.20;;;;;;;17.05;52.37;99949.66;5074610;28;20024;-76
2021/06/03 05:17:56;;;;;;;6.55;4.50;;;;;;;16.96;52.06;99933.06;5074612;28;20032;-76
2021/06/03 05:20:24;;;;;;;6.00;4.50;;;;;;;17.05;52.08;99947.00;5074258;28;20029;-77
2021/06/03 05:22:52;;;;;;;7.55;4.55;;;;;;;17.06;51.93;99946.78;5074098;28;20035;-76
2021/06/03 05:25:21;;;;;;;5.25;4.18;;;;;;;17.14;51.72;99953.78;5074341;28;20031;-80
2021/06/03 05:27:46;;;;;;;4.95;4.28;;;;;;;16.67;51.32;99862.41;5074304;28;20107;-79
2021/06/03 05:30:15;;;;;;;6.60;4.18;;;;;;;17.23;51.10;99936.50;5074459;28;20108;-80
2021/06/03 05:32:41;;;;;;;5.43;4.25;;;;;;;16.97;51.17;99894.69;5074347;28;20020;-80
2021/06/03 05:35:09;;;;;;;5.57;4.45;;;;;;;17.32;51.08;99969.94;5074572;28;20167;-80
2021/06/03 05:37:34;;;;;;;7.15;4.55;;;;;;;17.12;51.06;99921.97;5073176;28;20024;-80
2021/06/03 05:40:00;;;;;;;7.38;4.35;;;;;;;17.40;51.36;99958.19;5073656;28;20040;-80
2021/06/03 05:42:26;;;;;;;8.63;5.50;;;;;;;17.46;51.14;99957.34;5059003;28;20535;-80
2021/06/03 05:44:51;;;;;;;10.38;5.07;;;;;;;17.08;50.69;99903.91;5059358;28;20031;-80
2021/06/03 05:47:17;;;;;;;9.13;4.68;;;;;;;17.35;50.22;99956.16;5064141;28;20033;-79
2021/06/03 05:49:42;;;;;;;7.32;5.05;;;;;;;17.45;50.49;99959.19;5069344;28;20050;-80
2021/06/03 05:52:08;;;;;;;10.07;5.32;;;;;;;17.37;50.11;99934.59;5074306;28;20149;-80
2021/06/03 05:54:34;;;;;;;5.20;4.47;;;;;;;17.57;49.76;99959.34;5072603;28;20074;-79
2021/06/03 05:57:00;;;;;;;6.32;4.55;;;;;;;17.61;49.71;99968.56;5058164;28;20028;-80
2021/06/03 05:59:26;;;;;;;9.73;5.32;;;;;;;17.69;49.83;99963.00;5053952;28;20025;-79
2021/06/03 06:01:57;;;;;;;8.55;4.53;;;;;;;17.53;49.69;99925.28;5071650;28;20492;-81
2021/06/03 06:06:47;;;;;;;6.15;4.65;;;;;;;17.39;49.23;99884.47;5071892;28;20024;-81
2021/06/03 06:09:14;;;;;;;5.85;5.20;;;;;;;17.82;49.16;99962.09;5055616;28;20021;-81
2021/06/03 06:11:41;;;;;;;4.75;4.30;;;;;;;17.98;48.76;99968.81;5062246;28;20020;-82
2021/06/03 06:14:08;;;;;;;7.30;4.25;;;;;;;18.01;48.90;99965.72;5056708;28;20030;-80
2021/06/03 06:16:35;;;;;;;5.50;3.95;;;;;;;18.07;48.74;99967.50;5055148;28;20028;-82
2021/06/03 06:19:01;;;;;;;6.10;4.18;;;;;;;17.68;48.51;99904.47;5067846;28;20086;-82
2021/06/03 06:21:27;;;;;;;8.82;4.28;;;;;;;18.17;48.68;99964.38;5061243;28;20019;-80
2021/06/03 06:23:53;;;;;;;8.20;4.47;;;;;;;17.88;48.77;99915.03;5052431;28;20029;-76
2021/06/03 06:26:20;;;;;;;7.10;4.43;;;;;;;18.17;48.70;99953.66;5066367;28;20517;-76
2021/06/03 06:28:46;;;;;;;6.28;4.38;;;;;;;18.32;48.65;99965.69;5064100;28;20528;-76
2021/06/03 06:31:13;;;;;;;5.88;4.40;;;;;;;18.40;48.53;99965.41;5064813;28;20106;-76
2021/06/03 06:33:39;;;;;;;5.07;4.57;;;;;;;18.48;48.16;99976.88;5061994;28;20012;-76
2021/06/03 06:36:05;;;;;;;8.50;4.35;;;;;;;18.49;48.58;99973.16;5059982;28;20500;-77
2021/06/03 06:38:31;;;;;;;7.15;4.32;;;;;;;18.22;48.57;99922.59;5058753;28;20111;-76
2021/06/03 06:40:57;;;;;;;7.65;4.50;;;;;;;18.65;48.04;99984.16;5054767;28;20477;-75
2021/06/03 06:43:24;;;;;;;7.30;4.85;;;;;;;18.74;47.64;99965.97;5055150;28;20112;-77
2021/06/03 06:45:50;;;;;;;6.60;4.50;;;;;;;18.79;47.13;99973.34;5059711;28;20033;-76
2021/06/03 06:48:16;;;;;;;6.07;4.38;;;;;;;18.46;46.52;99923.59;5067777;28;20032;-77
2021/06/03 06:50:42;;;;;;;5.00;4.00;;;;;;;18.59;46.59;99923.50;5076121;28;20025;-76
2021/06/03 06:53:09;;;;;;;5.75;4.03;;;;;;;18.86;46.72;99956.19;5064267;28;20501;-76
2021/06/03 06:55:36;;;;;;;9.30;4.43;;;;;;;19.01;46.74;99967.34;5051701;28;20497;-76
2021/06/03 06:58:02;;;;;;;6.75;4.13;;;;;;;17.81;46.83;99789.53;5063428;28;20027;-76
2021/06/03 07:00:31;;;;;;;6.78;4.57;;;;;;;19.23;46.56;99977.59;5057291;28;20029;-76
2021/06/03 07:02:56;;;;;;;8.93;4.60;;;;;;;19.34;46.66;99975.03;5063916;28;20048;-76
2021/06/03 07:05:22;;;;;;;10.60;4.20;;;;;;;19.19;46.25;99955.81;5049037;28;20060;-76
2021/06/03 07:07:48;;;;;;;6.85;3.40;;;;;;;19.28;45.85;99953.66;5057536;28;20512;-74
2021/06/03 07:10:14;;;;;;;8.30;3.85;;;;;;;19.23;45.41;99932.91;5072339;28;20053;-75
2021/06/03 07:12:41;;;;;;;3.85;3.40;;;;;;;19.40;44.98;99956.41;5062025;28;20028;-74
2021/06/03 07:15:09;;;;;;;8.13;4.45;;;;;;;19.60;43.90;99984.63;5065491;28;20024;-76
2021/06/03 07:17:35;;;;;;;7.97;3.45;;;;;;;19.23;44.37;99926.75;5057119;28;20032;-76
2021/06/03 07:20:02;;;;;;;5.47;3.80;;;;;;;19.33;44.25;99938.56;5062942;28;20034;-73
2021/06/03 07:22:27;;;;;;;5.80;4.30;;;;;;;19.52;43.88;99955.47;5056671;28;20021;-74
2021/06/03 07:24:53;;;;;;;7.78;4.28;;;;;;;19.56;43.50;99959.31;5055711;28;20024;-75
2021/06/03 07:27:18;;;;;;;6.75;3.60;;;;;;;19.77;43.49;99986.66;5071410;28;20484;-74
2021/06/03 07:29:44;;;;;;;8.95;4.22;;;;;;;19.88;43.43;99985.88;5059009;28;20025;-73
2021/06/03 07:32:09;;;;;;;6.78;3.30;;;;;;;19.96;42.85;99983.69;5066365;28;20043;-75
2021/06/03 07:34:35;;;;;;;4.22;3.15;;;;;;;19.67;42.10;99925.59;5063197;28;20435;-74
2021/06/03 07:37:01;;;;;;;6.45;3.17;;;;;;;19.68;41.90;99938.75;5065382;28;20043;-75
2021/06/03 07:39:27;;;;;;;6.72;3.70;;;;;;;20.05;41.67;99965.44;5065749;28;20016;-76
2021/06/03 07:41:53;;;;;;;4.45;3.13;;;;;;;19.84;41.26;99945.31;5056211;28;20028;-76
2021/06/03 07:44:18;;;;;;;4.90;3.60;;;;;;;20.24;40.69;99993.00;5040604;28;20512;-73
2021/06/03 07:46:44;;;;;;;5.70;3.42;;;;;;;20.20;40.34;99976.56;5076858;28;20043;-73
2021/06/03 07:49:13;;;;;;;4.70;2.90;;;;;;;20.42;39.22;99997.50;5065616;28;20024;-73
2021/06/03 07:51:39;;;;;;;5.30;2.88;;;;;;;20.17;39.05;99950.22;5063886;28;20462;-74
2021/06/03 07:54:04;;;;;;;7.25;4.05;;;;;;;20.18;38.99;99929.59;5056550;28;20025;-74
2021/06/03 07:56:30;;;;;;;4.80;2.78;;;;;;;20.67;38.63;99998.09;5055714;28;20078;-75
2021/06/03 07:58:55;;;;;;;6.20;3.55;;;;;;;20.48;38.22;99967.88;5064747;28;20025;-74
2021/06/03 08:01:21;;;;;;;5.30;3.17;;;;;;;20.80;37.57;99997.06;5058295;28;20034;-75
2021/06/03 08:03:46;;;;;;;6.97;3.10;;;;;;;20.79;37.77;99992.75;5081595;28;20033;-76
2021/06/03 08:06:11;;;;;;;4.63;2.85;;;;;;;20.84;37.58;99984.84;5061684;28;20416;-76
2021/06/03 08:08:37;;;;;;;6.47;2.92;;;;;;;20.61;37.48;99948.06;5051818;28;20032;-73
2021/06/03 08:11:07;;;;;;;10.85;3.20;;;;;;;20.84;37.35;99958.81;5056297;28;20043;-72
2021/06/03 08:13:33;;;;;;;4.30;2.75;;;;;;;20.73;37.09;99930.09;5055627;28;20029;-74
2021/06/03 08:15:59;;;;;;;4.78;2.60;;;;;;;20.63;36.67;99903.03;5070765;28;20111;-74
2021/06/03 08:18:25;;;;;;;6.18;2.83;;;;;;;21.23;36.64;99996.72;5056926;28;20117;-75
2021/06/03 08:20:55;;;;;;;6.47;2.90;;;;;;;20.82;36.43;99949.34;5053573;28;20040;-73
2021/06/03 08:23:21;;;;;;;9.45;3.03;;;;;;;20.78;36.65;99940.94;5050859;28;20062;-75
2021/06/03 08:25:48;;;;;;;6.85;3.00;;;;;;;20.62;36.40;99926.38;5053119;28;20108;-73
2021/06/03 08:28:13;;;;;;;6.78;3.05;;;;;;;20.50;36.36;99906.78;5060504;28;20138;-76
2021/06/03 08:30:39;;;;;;;4.50;2.58;;;;;;;20.84;35.48;99963.34;5058282;28;20466;-73
2021/06/03 08:33:06;;;;;;;3.70;2.80;;;;;;;21.17;35.64;100003.81;5068554;28;20519;-76
2021/06/03 08:35:32;;;;;;;3.28;2.63;;;;;;;21.03;35.59;99969.41;5058262;28;20031;-73
2021/06/03 08:37:58;;;;;;;2.85;2.55;;;;;;;21.09;34.99;99950.47;5057083;28;20467;-73
2021/06/03 08:40:29;;;;;;;7.30;3.00;;;;;;;21.64;34.29;100002.94;5057389;28;20533;-74
2021/06/03 08:42:56;;;;;;;7.43;3.33;;;;;;;21.75;34.64;99994.03;5065357;28;20116;-73
2021/06/03 08:45:24;;;;;;;5.22;2.75;;;;;;;21.88;34.85;99969.53;5050590;28;20029;-73
2021/06/03 08:47:51;;;;;;;3.47;2.88;;;;;;;22.08;33.80;99977.16;5065104;28;20020;-74
2021/06/03 08:50:17;;;;;;;3.78;2.63;;;;;;;22.04;34.56;99949.94;5062357;28;20032;-73
2021/06/03 08:52:43;;;;;;;3.95;2.60;;;;;;;21.84;34.80;99922.69;5057695;28;20230;-73
2021/06/03 08:56:13;;;;;;;4.75;3.08;;;;;;;22.21;34.56;99998.38;5068628;28;20470;-75
2021/06/03 08:58:00;;;;;;;5.22;2.80;;;;;;;22.09;34.58;99984.19;5057816;28;20036;-75
2021/06/03 09:00:26;;;;;;;4.78;2.78;;;;;;;22.19;34.58;99995.94;5061753;28;20421;-75
2021/06/03 09:02:51;;;;;;;3.47;2.83;;;;;;;21.47;34.28;99841.66;5054724;28;20028;-75
2021/06/03 09:05:17;;;;;;;4.60;2.42;;;;;;;22.15;33.96;99921.34;5062412;28;20064;-75
2021/06/03 09:07:43;;;;;;;4.30;3.03;;;;;;;22.62;34.04;99975.66;5070412;28;20352;-74
2021/06/03 09:10:38;;;;;;;3.95;2.63;;;;;;;22.78;33.85;99985.59;5085349;28;20035;-75
2021/06/03 09:13:11;;;;;;;4.75;2.65;;;;;;;22.18;33.51;99932.44;5052428;28;20032;-75
2021/06/03 09:15:39;;;;;;;6.40;2.90;;;;;;;22.28;33.81;99931.78;5054182;28;20150;-75
2021/06/03 09:18:09;;;;;;;4.95;2.85;;;;;;;22.52;33.83;99988.97;5051799;28;20501;-75
2021/06/03 09:20:35;;;;;;;5.90;2.90;;;;;;;22.23;33.79;99960.47;5056223;28;20534;-75
2021/06/03 09:23:04;;;;;;;3.75;2.95;;;;;;;22.34;33.32;100005.34;5057875;28;20488;-74
2021/06/03 09:25:40;;;;;;;2.92;2.58;;;;;;;21.94;33.76;99941.69;5062347;28;20103;-76
2021/06/03 09:28:22;;;;;;;3.72;2.80;;;;;;;22.36;33.84;100005.91;5068069;28;20025;-74
2021/06/03 09:31:09;;;;;;;6.22;3.30;;;;;;;22.41;33.81;99989.84;5054393;28;20020;-75
2021/06/03 09:33:51;;;;;;;3.65;2.80;;;;;;;22.45;33.48;99996.38;5052518;28;20017;-75
2021/06/03 09:36:18;;;;;;;3.60;2.65;;;;;;;22.61;33.98;99987.47;5064620;28;20074;-74
2021/06/03 09:38:55;;;;;;;5.32;2.95;;;;;;;22.78;33.61;99990.16;5057598;28;20120;-75
2021/06/03 09:41:22;;;;;;;5.45;3.28;;;;;;;22.82;33.29;99978.69;5071086;28;20023;-76
2021/06/03 09:43:48;;;;;;;5.22;4.07;;;;;;;23.10;32.86;99993.91;5061946;28;20079;-74
2021/06/03 09:46:16;;;;;;;5.55;3.00;;;;;;;23.10;32.69;99999.28;5057154;28;20040;-75
2021/06/03 09:48:46;;;;;;;6.03;2.90;;;;;;;22.96;32.97;99994.47;5071206;28;20036;-74
2021/06/03 09:51:36;;;;;;;4.18;2.30;;;;;;;23.22;32.10;99999.19;5055950;28;20055;-73
2021/06/03 09:54:15;;;;;;;8.48;3.05;;;;;;;23.80;31.88;99989.66;5073594;28;20067;-75
2021/06/03 09:56:46;;;;;;;5.32;2.97;;;;;;;23.84;31.18;99947.63;5100556;28;20034;-73
2021/06/03 09:59:25;;;;;;;5.17;4.27;;;;;;;23.92;31.64;99990.34;5092806;28;20038;-76
2021/06/03 10:01:52;;;;;;;5.30;2.65;;;;;;;23.76;32.58;99997.41;5089686;28;20025;-75
2021/06/03 10:04:24;;;;;;;7.43;2.53;;;;;;;23.41;31.72;99956.56;5089855;28;20103;-73
2021/06/03 10:07:09;;;;;;;3.65;2.78;;;;;;;23.61;32.09;99996.44;5079841;28;20024;-73
2021/06/03 10:09:49;;;;;;;5.90;2.90;;;;;;;23.66;31.70;99991.09;5096367;28;20028;-74
2021/06/03 10:12:24;;;;;;;3.33;2.65;;;;;;;23.80;31.88;99978.06;5082159;28;20110;-74
2021/06/03 10:14:57;;;;;;;5.63;2.70;;;;;;;23.76;31.50;99948.06;5091122;28;20032;-73
2021/06/03 10:17:34;;;;;;;4.00;2.40;;;;;;;24.29;31.08;99989.63;5079488;28;20027;-72
2021/06/03 10:20:12;;;;;;;4.85;2.30;;;;;;;23.92;30.80;99940.97;5086150;28;20028;-74
2021/06/03 10:22:43;;;;;;;4.68;2.85;;;;;;;23.86;31.11;99893.44;5077220;28;20024;-73
2021/06/03 10:25:21;;;;;;;3.08;2.70;;;;;;;24.75;28.95;99984.59;5090311;28;20044;-73
2021/06/03 10:27:51;;;;;;;2.85;2.33;;;;;;;24.62;29.35;99937.25;5081240;28;20024;-74
2021/06/03 10:30:25;;;;;;;4.95;2.67;;;;;;;24.69;30.26;99987.25;5092337;28;20039;-73
2021/06/03 10:32:52;;;;;;;4.13;2.50;;;;;;;24.28;30.70;99974.50;5070024;28;20044;-74
2021/06/03 10:35:24;;;;;;;4.28;2.15;;;;;;;23.75;30.35;99923.00;5083531;28;20036;-73
2021/06/03 10:37:50;;;;;;;3.38;2.28;;;;;;;24.39;30.82;99981.59;5082631;28;20029;-74
2021/06/03 10:40:19;;;;;;;4.28;2.40;;;;;;;24.64;30.69;99981.81;5093258;28;20026;-72
2021/06/03 10:42:45;;;;;;;4.28;3.40;;;;;;;24.59;32.15;99984.47;5094811;28;20056;-76
2021/06/03 10:45:13;;;;;;;5.35;3.50;;;;;;;24.30;33.49;99980.44;5095429;28;20068;-74
2021/06/03 10:47:39;;;;;;;5.00;3.50;;;;;;;24.09;34.84;99993.72;5086493;28;20045;-74
2021/06/03 10:50:07;;;;;;;4.85;3.65;;;;;;;23.48;35.84;99930.22;5091961;28;20029;-75
2021/06/03 10:52:34;;;;;;;10.95;3.90;;;;;;;23.54;36.71;99971.53;5075498;28;20471;-73
2021/06/03 10:54:59;;;;;;;4.85;3.20;;;;;;;23.70;36.61;99984.94;5088878;28;20050;-74
2021/06/03 10:57:54;;;;;;;4.18;3.25;;;;;;;24.30;36.18;99999.34;5077175;28;20496;-74
2021/06/03 11:00:35;;;;;;;6.03;3.85;;;;;;;24.09;36.95;100003.72;5084215;28;20016;-73
2021/06/03 11:03:05;;;;;;;3.70;3.40;;;;;;;23.68;36.96;99976.31;5071071;28;20039;-75
2021/06/03 11:05:35;;;;;;;4.60;3.35;;;;;;;23.92;37.17;100003.00;5075403;28;20512;-74
2021/06/03 11:08:28;;;;;;;5.50;3.00;;;;;;;24.36;36.74;100001.81;5102903;28;20397;-73
2021/06/03 11:10:55;;;;;;;4.50;3.65;;;;;;;24.59;35.90;99957.47;5084197;28;20119;-73
2021/06/03 11:13:22;;;;;;;6.28;3.70;;;;;;;25.17;35.49;100025.94;5087987;28;20031;-72
2021/06/03 11:16:09;;;;;;;6.90;3.92;;;;;;;25.50;35.03;100007.72;5094197;28;20023;-74
2021/06/03 11:18:49;;;;;;;6.07;5.05;;;;;;;25.66;34.71;100012.13;5100535;28;20039;-73
2021/06/03 11:21:42;;;;;;;9.43;5.67;;;;;;;25.68;33.24;100009.97;5075622;28;20135;-73
2021/06/03 11:24:36;;;;;;;7.78;5.82;;;;;;;25.75;33.46;100005.13;5078251;28;20032;-76
2021/06/03 11:27:08;;;;;;;7.43;6.63;;;;;;;25.83;33.71;100012.72;5074379;28;20137;-74
2021/06/03 11:29:52;;;;;;;8.13;5.90;;;;;;;25.77;33.09;99986.75;5075090;28;20032;-74
2021/06/03 11:32:23;;;;;;;10.63;8.40;;;;;;;26.22;32.90;100023.09;5077601;28;20119;-74
2021/06/03 11:34:52;;;;;;;7.88;4.47;;;;;;;25.87;32.42;99967.00;5077801;28;20071;-74
2021/06/03 11:37:27;;;;;;;6.00;3.88;;;;;;;26.27;32.57;100012.28;5094126;28;20415;-74
2021/06/03 11:39:56;;;;;;;6.47;3.70;;;;;;;26.28;32.94;100014.72;5072077;28;20031;-74